Time;durP1;ratioP1;P1;durP2;ratioP2;P2;SDS_P1;SDS_P2;PMS_P1;PMS_P2;Temp;Humidity;BMP_temperature;BMP_pressure;BME280_temperature;BME280_humidity;BME280_pressure;Samples;Min_cycle;Max_cycle;Signal;HPM_P1;HPM_P2
2022/01/01 00:00:41;;;;;;;;;;;12.00;99.90;;;12.06;70.09;98620.50;5026048;28;20510;-82
2022/01/01 00:03:07;;;;;;;;;;;12.00;99.90;;;12.10;70.27;98620.72;5008000;28;19936;-82
2022/01/01 00:05:33;;;;;;;;;;;12.00;99.90;;;12.13;70.40;98618.22;5007480;28;19971;-82
2022/01/01 00:08:01;;;;;;;;;;;12.00;99.90;;;12.09;70.32;98625.34;5010033;28;20015;-82
2022/01/01 00:10:27;;;;;;;;;;;12.00;99.90;;;12.12;70.10;98618.53;4993052;28;20400;-82
2022/01/01 00:12:52;;;;;;;;;;;12.00;99.90;;;12.09;70.36;98613.69;5009871;28;19947;-82
2022/01/01 00:15:20;;;;;;;;;;;12.00;99.90;;;12.04;70.80;98619.97;5008219;28;20375;-83
2022/01/01 00:17:46;;;;;;;;;;;12.00;99.90;;;11.96;70.87;98609.72;5025966;28;19950;-82
2022/01/01 00:20:12;;;;;;;;;;;12.00;99.90;;;11.99;70.80;98621.94;5009691;28;19924;-82
2022/01/01 00:22:40;;;;;;;;;;;11.90;99.90;;;12.06;70.45;98617.78;5023577;28;20538;-82
2022/01/01 00:25:08;;;;;;;;;;;11.90;99.90;;;12.10;70.79;98615.28;5028523;28;19921;-82
2022/01/01 00:27:36;;;;;;;;;;;11.90;99.90;;;12.08;70.76;98620.19;5011994;28;20013;-83
2022/01/01 00:30:06;;;;;;;;;;;12.00;99.90;;;12.16;70.58;98619.56;5010514;28;20007;-83
2022/01/01 00:32:36;;;;;;;;;;;12.00;99.90;;;12.11;70.90;98625.06;5010895;28;20027;-82
2022/01/01 00:35:03;;;;;;;;;;;11.90;99.90;;;12.08;70.77;98628.34;5041052;28;20431;-83
2022/01/01 00:37:29;;;;;;;;;;;12.00;99.90;;;12.07;71.07;98627.56;4985592;28;19921;-83
2022/01/01 00:39:55;;;;;;;;;;;12.00;99.90;;;12.09;71.26;98625.34;4994899;28;19952;-83
2022/01/01 00:42:24;;;;;;;;;;;12.00;99.90;;;12.11;71.04;98627.78;5006266;28;19986;-83
2022/01/01 00:44:50;;;;;;;;;;;12.00;99.90;;;12.06;71.30;98627.81;4995034;28;19968;-83
2022/01/01 00:47:16;;;;;;;;;;;12.00;99.90;;;12.06;71.42;98622.38;4996054;28;19927;-82
2022/01/01 00:49:42;;;;;;;;;;;12.00;99.90;;;12.06;70.98;98619.66;5023206;28;20388;-83
2022/01/01 00:52:09;;;;;;;;;;;11.90;99.90;;;12.02;71.67;98615.91;5027254;28;19978;-83
2022/01/01 00:54:35;;;;;;;;;;;12.00;99.90;;;12.00;71.60;98628.97;5015051;28;19932;-83
2022/01/01 00:57:01;;;;;;;;;;;11.90;99.90;;;12.00;71.13;98628.97;5001342;28;19927;-82
2022/01/01 00:59:29;;;;;;;;;;;11.90;99.90;;;12.01;71.56;98625.16;5009649;28;20288;-82
2022/01/01 01:01:55;;;;;;;;;;;11.90;99.90;;;12.04;71.74;98630.84;5000692;28;19917;-82
2022/01/01 01:04:20;;;;;;;;;;;11.90;99.90;;;12.03;71.20;98634.66;5006294;28;19925;-82
2022/01/01 01:06:46;;;;;;;;;;;12.00;99.90;;;12.05;71.04;98632.47;5025779;28;20388;-83
2022/01/01 01:09:12;;;;;;;;;;;12.00;99.90;;;11.99;71.40;98628.19;5038886;28;19921;-83
2022/01/01 01:11:43;;;;;;;;;;;11.90;99.90;;;12.04;72.00;98630.84;5009154;28;19921;-82
2022/01/01 01:14:18;;;;;;;;;;;11.90;99.90;;;12.10;71.45;98631.59;5043662;28;20368;-83
2022/01/01 01:16:45;;;;;;;;;;;12.00;99.90;;;12.08;71.16;98623.72;5014374;28;19925;-83
2022/01/01 01:19:17;;;;;;;;;;;12.00;99.90;;;12.12;71.25;98645.72;5008243;28;19979;-82
2022/01/01 01:21:44;;;;;;;;;;;12.10;99.90;;;12.15;71.35;98639.72;5011589;28;20356;-82
2022/01/01 01:24:11;;;;;;;;;;;12.00;99.90;;;12.14;71.09;98638.09;5010482;28;19928;-82
2022/01/01 01:26:37;;;;;;;;;;;12.10;99.90;;;12.18;71.11;98639.13;5022308;28;20019;-82
2022/01/01 01:29:04;;;;;;;;;;;12.10;99.90;;;12.17;71.24;98637.50;5027190;28;19955;-83
2022/01/01 01:31:31;;;;;;;;;;;12.00;99.90;;;12.20;71.07;98647.00;5012122;28;19979;-82
2022/01/01 01:33:57;;;;;;;;;;;12.10;99.90;;;12.20;71.41;98658.69;5027681;28;20318;-82
2022/01/01 01:36:23;;;;;;;;;;;12.10;99.90;;;12.19;70.81;98657.06;5010631;28;19921;-82
2022/01/01 01:38:49;;;;;;;;;;;12.10;99.90;;;12.19;71.39;98661.69;4999419;28;19990;-82
2022/01/01 01:41:15;;;;;;;;;;;12.20;99.90;;;12.26;71.33;98673.03;5026574;28;20014;-82
2022/01/01 01:43:40;;;;;;;;;;;12.20;99.90;;;12.27;71.06;98666.50;5014755;28;19974;-82
2022/01/01 01:46:09;;;;;;;;;;;12.20;99.90;;;12.26;71.24;98673.03;5029611;28;19929;-82
2022/01/01 01:48:36;;;;;;;;;;;12.20;99.90;;;12.30;71.29;98685.78;5029646;28;20475;-82
2022/01/01 01:51:03;;;;;;;;;;;12.20;99.90;;;12.34;71.13;98688.75;5022629;28;20028;-82
2022/01/01 01:53:28;;;;;;;;;;;12.20;99.90;;;12.28;70.92;98679.81;5026351;28;19948;-83
2022/01/01 01:55:55;;;;;;;;;;;12.20;99.90;;;12.31;71.49;98681.16;4997591;28;19928;-82
2022/01/01 01:58:21;;;;;;;;;;;12.20;99.90;;;12.33;71.25;98693.34;4997529;28;19928;-82
2022/01/01 02:01:11;;;;;;;;;;;12.20;99.90;;;12.29;71.38;98686.88;5014698;28;20336;-83
2022/01/01 02:03:36;;;;;;;;;;;12.20;99.90;;;12.27;71.26;98693.72;5031839;28;20327;-82
2022/01/01 02:06:05;;;;;;;;;;;12.20;99.90;;;12.29;71.51;98684.16;5012128;28;19928;-82
2022/01/01 02:08:31;;;;;;;;;;;12.20;99.90;;;12.27;71.64;98697.25;5011469;28;19932;-82
2022/01/01 02:10:57;;;;;;;;;;;12.20;99.90;;;12.30;71.66;98707.53;5012263;28;19948;-82
2022/01/01 02:13:32;;;;;;;;;;;12.20;99.90;;;12.33;71.32;98687.91;4992545;28;19928;-82
2022/01/01 02:16:15;;;;;;;;;;;12.20;99.90;;;12.26;71.78;98695.63;5012231;28;19921;-82
2022/01/01 02:18:43;;;;;;;;;;;12.20;99.90;;;12.24;72.09;98705.16;5003142;28;19927;-82
2022/01/01 02:21:09;;;;;;;;;;;12.20;99.90;;;12.26;71.95;98700.22;5013306;28;19920;-82
2022/01/01 02:23:35;;;;;;;;;;;12.20;99.90;;;12.35;71.48;98701.25;5016557;28;19935;-82
2022/01/01 02:26:00;;;;;;;;;;;12.20;99.90;;;12.33;71.91;98706.97;5013422;28;19931;-82
2022/01/01 02:28:27;;;;;;;;;;;12.20;99.90;;;12.37;71.45;98699.06;5015848;28;20015;-82
2022/01/01 02:30:52;;;;;;;;;;;12.30;99.90;;;12.37;71.73;98707.22;5031299;28;19925;-83
2022/01/01 02:33:18;;;;;;;;;;;12.30;99.90;;;12.36;71.78;98714.56;5014478;28;19931;-83
2022/01/01 02:35:44;;;;;;;;;;;12.30;99.90;;;12.43;71.37;98716.94;4998445;28;19963;-83
2022/01/01 02:38:10;;;;;;;;;;;12.30;99.90;;;12.45;71.42;98714.75;5015538;28;19924;-83
2022/01/01 02:40:38;;;;;;;;;;;12.20;99.90;;;12.45;71.38;98713.94;5014271;28;20195;-83
2022/01/01 02:43:05;;;;;;;;;;;12.30;99.90;;;12.46;71.41;98712.81;5011717;28;19978;-82
2022/01/01 02:45:31;;;;;;;;;;;12.30;99.90;;;12.41;72.17;98716.41;5031261;28;19932;-82
2022/01/01 02:47:57;;;;;;;;;;;12.30;99.90;;;12.40;71.88;98735.75;5030270;28;20302;-82
2022/01/01 02:50:23;;;;;;;;;;;12.30;99.90;;;12.49;71.47;98734.84;5031957;28;20528;-82
2022/01/01 02:52:48;;;;;;;;;;;12.30;99.90;;;12.50;71.72;98728.28;5010580;28;19925;-82
2022/01/01 02:55:14;;;;;;;;;;;12.40;99.90;;;12.52;71.48;98736.97;4998523;28;19929;-82
2022/01/01 02:57:40;;;;;;;;;;;12.30;99.90;;;12.53;71.83;98733.16;5000352;28;20221;-82
2022/01/01 03:00:08;;;;;;;;;;;12.30;99.90;;;12.57;71.59;98736.91;5015444;28;19925;-82
2022/01/01 03:02:34;;;;;;;;;;;12.40;99.90;;;12.56;71.43;98734.47;5014903;28;19925;-82
2022/01/01 03:04:59;;;;;;;;;;;12.40;99.90;;;12.52;71.63;98733.44;4997895;28;19921;-82
2022/01/01 03:07:25;;;;;;;;;;;12.30;99.90;;;12.53;71.92;98732.34;5013449;28;19921;-82
2022/01/01 03:09:51;;;;;;;;;;;12.40;99.90;;;12.54;71.65;98739.38;5030218;28;20285;-82
2022/01/01 03:12:17;;;;;;;;;;;12.40;99.90;;;12.56;71.99;98753.53;5029665;28;20425;-82
2022/01/01 03:14:43;;;;;;;;;;;12.40;99.90;;;12.54;71.67;98744.84;5027289;28;19928;-82
2022/01/01 03:17:09;;;;;;;;;;;12.40;99.90;;;12.54;71.82;98748.38;4999006;28;19921;-82
2022/01/01 03:19:35;;;;;;;;;;;12.30;99.90;;;12.58;71.75;98743.16;4998356;28;19925;-82
2022/01/01 03:22:01;;;;;;;;;;;12.30;99.90;;;12.46;72.30;98745.47;4996901;28;19925;-82
2022/01/01 03:24:27;;;;;;;;;;;12.30;99.90;;;12.47;72.41;98745.19;5014404;28;19920;-82
2022/01/01 03:26:53;;;;;;;;;;;12.40;99.90;;;12.52;71.95;98738.91;5013929;28;20309;-82
2022/01/01 03:29:19;;;;;;;;;;;12.40;99.90;;;12.55;72.21;98743.75;5028918;28;19925;-82
2022/01/01 03:31:45;;;;;;;;;;;12.40;99.90;;;12.52;71.87;98747.88;4998224;28;19932;-82
2022/01/01 03:34:11;;;;;;;;;;;12.40;99.90;;;12.56;71.93;98739.91;5028366;28;19964;-82
2022/01/01 03:36:37;;;;;;;;;;;12.40;99.90;;;12.60;71.50;98749.16;5028247;28;20380;-82
2022/01/01 03:39:03;;;;;;;;;;;12.40;99.90;;;12.62;71.74;98755.13;5014775;28;19924;-82
2022/01/01 03:41:29;;;;;;;;;;;12.40;99.90;;;12.68;71.19;98748.50;5028677;28;20015;-82
2022/01/01 03:43:55;;;;;;;;;;;12.40;99.90;;;12.73;70.89;98759.34;5015697;28;19925;-82
2022/01/01 03:46:21;;;;;;;;;;;12.50;99.90;;;12.68;71.21;98770.28;4995528;28;19924;-82
2022/01/01 03:48:47;;;;;;;;;;;12.50;99.90;;;12.69;71.39;98774.59;4996668;28;20392;-82
2022/01/01 03:51:13;;;;;;;;;;;12.50;99.90;;;12.73;71.21;98780.31;4996974;28;19984;-82
2022/01/01 03:53:39;;;;;;;;;;;12.50;99.90;;;12.74;71.25;98790.09;5014787;28;20253;-82
2022/01/01 03:56:07;;;;;;;;;;;12.50;99.90;;;12.75;71.14;98776.19;5011369;28;19932;-82
2022/01/01 03:58:33;;;;;;;;;;;12.50;99.90;;;12.76;71.09;98777.81;5027570;28;20291;-82
2022/01/01 04:00:59;;;;;;;;;;;12.50;99.90;;;12.79;71.17;98785.38;5013951;28;19932;-82
2022/01/01 04:03:25;;;;;;;;;;;12.60;99.90;;;12.75;71.54;98792.53;5029716;28;19929;-82
2022/01/01 04:05:51;;;;;;;;;;;12.60;99.90;;;12.80;71.38;98786.22;5006628;28;19921;-82
2022/01/01 04:08:17;;;;;;;;;;;12.60;99.90;;;12.75;71.24;98792.53;5030152;28;20399;-82
2022/01/01 04:10:43;;;;;;;;;;;12.60;99.90;;;12.77;71.31;98782.16;4998409;28;19956;-83
2022/01/01 04:13:09;;;;;;;;;;;12.60;99.90;;;12.78;71.60;98797.38;5013735;28;19925;-82
2022/01/01 04:15:35;;;;;;;;;;;12.60;99.90;;;12.83;71.40;98793.81;4991530;28;19984;-82
2022/01/01 04:18:06;;;;;;;;;;;12.60;99.90;;;12.83;71.32;98804.69;5009243;28;19924;-82
2022/01/01 04:20:32;;;;;;;;;;;12.60;99.90;;;12.81;71.33;98798.72;5013626;28;19932;-83
2022/01/01 04:22:58;;;;;;;;;;;12.70;99.90;;;12.79;71.39;98804.44;5009935;28;19921;-83
2022/01/01 04:25:26;;;;;;;;;;;12.70;99.90;;;12.81;71.32;98799.53;5008904;28;20222;-83
2022/01/01 04:27:53;;;;;;;;;;;12.60;99.90;;;12.78;71.53;98804.75;4993352;28;19925;-82
2022/01/01 04:30:19;;;;;;;;;;;12.60;99.90;;;12.75;71.62;98803.41;5007428;28;20380;-82
2022/01/01 04:32:45;;;;;;;;;;;12.60;99.90;;;12.76;71.92;98799.59;5006710;28;20443;-83
2022/01/01 04:35:11;;;;;;;;;;;12.50;99.90;;;12.74;71.79;98799.06;5023181;28;21302;-83
2022/01/01 04:37:38;;;;;;;;;;;12.60;99.90;;;12.81;71.57;98791.38;5023807;28;19933;-83
2022/01/01 04:40:05;;;;;;;;;;;12.50;99.90;;;12.80;71.34;98811.53;5011129;28;19924;-82
2022/01/01 04:42:31;;;;;;;;;;;12.60;99.90;;;12.83;71.46;98810.13;5011140;28;19931;-82
2022/01/01 04:44:57;;;;;;;;;;;12.60;99.90;;;12.80;71.22;98811.53;5009225;28;19928;-82
2022/01/01 04:47:24;;;;;;;;;;;12.60;99.90;;;12.80;71.61;98816.16;5008763;28;19967;-82
2022/01/01 04:49:50;;;;;;;;;;;12.70;99.90;;;12.80;71.59;98813.44;5010289;28;19960;-82
2022/01/01 04:52:17;;;;;;;;;;;12.60;99.90;;;12.79;71.54;98815.34;5011736;28;20411;-83
2022/01/01 04:54:44;;;;;;;;;;;12.60;99.90;;;12.86;71.38;98814.19;5010644;28;19921;-82
2022/01/01 04:57:11;;;;;;;;;;;12.60;99.90;;;12.88;71.50;98829.16;5008453;28;20149;-83
2022/01/01 04:59:38;;;;;;;;;;;12.60;99.90;;;12.80;71.49;98825.13;5004975;28;20376;-83
2022/01/01 05:02:04;;;;;;;;;;;12.60;99.90;;;12.85;71.56;98821.56;5011467;28;19947;-82
2022/01/01 05:04:30;;;;;;;;;;;12.60;99.90;;;12.86;71.29;98820.44;5008333;28;19921;-82
2022/01/01 05:06:56;;;;;;;;;;;12.60;99.90;;;12.90;71.56;98828.84;4990544;28;20402;-82
2022/01/01 05:09:22;;;;;;;;;;;12.60;99.90;;;12.87;71.59;98832.94;5010323;28;20016;-82
2022/01/01 05:11:48;;;;;;;;;;;12.70;99.90;;;12.89;71.19;98835.41;5006067;28;19920;-82
2022/01/01 05:14:14;;;;;;;;;;;12.60;99.90;;;12.87;71.16;98832.13;5008259;28;20427;-82
2022/01/01 05:16:40;;;;;;;;;;;12.60;99.90;;;12.86;71.29;98830.53;5023049;28;20016;-82
2022/01/01 05:19:06;;;;;;;;;;;12.60;99.90;;;12.82;71.73;98831.13;5011823;28;20012;-82
2022/01/01 05:21:34;;;;;;;;;;;12.60;99.90;;;12.89;71.33;98832.66;5024254;28;20447;-82
2022/01/01 05:24:01;;;;;;;;;;;12.60;99.90;;;12.88;71.05;98833.78;5008821;28;19975;-82
2022/01/01 05:26:27;;;;;;;;;;;12.70;99.90;;;12.87;71.25;98841.13;5007491;28;19921;-83
2022/01/01 05:28:53;;;;;;;;;;;12.70;99.90;;;12.88;71.49;98842.75;4989190;28;19931;-82
2022/01/01 05:31:19;;;;;;;;;;;12.70;99.90;;;12.96;71.44;98841.31;5007177;28;20019;-83
2022/01/01 05:33:49;;;;;;;;;;;12.70;99.90;;;12.89;71.43;98841.66;5011692;28;19931;-83
2022/01/01 05:36:15;;;;;;;;;;;12.70;99.90;;;12.91;71.16;98853.06;5009485;28;19938;-82
2022/01/01 05:38:41;;;;;;;;;;;12.70;99.90;;;12.89;71.37;98844.38;4993860;28;19925;-82
2022/01/01 05:41:07;;;;;;;;;;;12.70;99.90;;;12.88;71.34;98853.66;5006810;28;20007;-82
2022/01/01 05:43:33;;;;;;;;;;;12.70;99.90;;;12.88;71.28;98858.28;5005874;28;20399;-82
2022/01/01 05:45:59;;;;;;;;;;;12.70;99.90;;;12.89;71.72;98857.19;5025640;28;19924;-85
2022/01/01 05:48:25;;;;;;;;;;;12.70;99.90;;;12.92;71.22;98862.03;5008887;28;19929;-85
2022/01/01 05:50:51;;;;;;;;;;;12.80;99.90;;;12.94;71.20;98862.56;5007611;28;19921;-85
2022/01/01 05:53:17;;;;;;;;;;;12.70;99.90;;;12.97;71.34;98851.91;4987871;28;19971;-85
2022/01/01 05:55:42;;;;;;;;;;;12.80;99.90;;;12.95;71.03;98858.72;5004782;28;19931;-85
2022/01/01 05:58:09;;;;;;;;;;;12.80;99.90;;;12.96;71.18;98866.63;5009935;28;19999;-85
2022/01/01 06:00:35;;;;;;;;;;;12.80;99.90;;;12.99;71.29;98874.22;5009876;28;19980;-85
2022/01/01 06:03:00;;;;;;;;;;;12.80;99.90;;;13.00;70.83;98872.28;5000922;28;20064;-85
2022/01/01 06:05:27;;;;;;;;;;;12.80;99.90;;;12.98;70.84;98864.44;5013394;28;19932;-85
2022/01/01 06:07:56;;;;;;;;;;;12.80;99.90;;;13.03;70.87;98872.56;5013199;28;19929;-85
2022/01/01 06:10:23;;;;;;;;;;;12.80;99.90;;;12.97;71.04;98867.44;4995239;28;20030;-85
2022/01/01 06:12:48;;;;;;;;;;;12.80;99.90;;;12.98;70.94;98885.41;5012864;28;19921;-85
2022/01/01 06:15:15;;;;;;;;;;;12.80;99.90;;;12.94;71.31;98871.53;5014029;28;20035;-85
2022/01/01 06:17:40;;;;;;;;;;;12.70;99.90;;;12.89;70.90;98882.47;5010862;28;19948;-85
2022/01/01 06:20:06;;;;;;;;;;;12.70;99.90;;;12.89;70.82;98889.84;5010548;28;20005;-85
2022/01/01 06:22:32;;;;;;;;;;;12.70;99.90;;;12.91;71.29;98887.66;5011667;28;20407;-85
2022/01/01 06:24:58;;;;;;;;;;;12.80;99.90;;;12.89;71.37;98893.38;5009812;28;19921;-85
2022/01/01 06:27:24;;;;;;;;;;;12.90;99.90;;;12.92;71.29;98883.81;5014355;28;19948;-85
2022/01/01 06:29:50;;;;;;;;;;;12.70;99.90;;;12.91;71.14;98884.94;5012634;28;19979;-85
2022/01/01 06:32:16;;;;;;;;;;;12.70;99.90;;;12.92;71.31;98890.06;5013430;28;20339;-85
2022/01/01 06:34:42;;;;;;;;;;;12.50;99.90;;;12.96;71.02;98898.50;5027327;28;19928;-85
2022/01/01 06:37:08;;;;;;;;;;;12.70;99.90;;;12.99;71.16;98897.91;5025915;28;19960;-85
2022/01/01 06:39:34;;;;;;;;;;;12.70;99.90;;;13.00;70.55;98888.63;4999486;28;19925;-85
2022/01/01 06:42:00;;;;;;;;;;;12.70;99.90;;;13.01;70.75;98918.31;5010488;28;20372;-85
2022/01/01 06:44:26;;;;;;;;;;;12.70;99.90;;;12.99;70.83;98911.53;5028259;28;19974;-85
2022/01/01 06:46:53;;;;;;;;;;;12.70;99.90;;;12.93;71.04;98921.66;4994186;28;19928;-85
2022/01/01 06:49:19;;;;;;;;;;;12.70;99.90;;;12.90;71.19;98933.13;5011453;28;20011;-85
2022/01/01 06:51:45;;;;;;;;;;;12.70;99.90;;;12.96;71.03;98925.72;5036736;28;20015;-85
2022/01/01 06:54:11;;;;;;;;;;;12.70;99.90;;;12.96;70.59;98923.81;5042189;28;19943;-85
2022/01/01 06:56:37;;;;;;;;;;;12.70;99.90;;;12.99;70.84;98916.97;5011616;28;19931;-85
2022/01/01 06:59:03;;;;;;;;;;;12.70;99.90;;;12.94;71.08;98925.19;5012031;28;19925;-85
2022/01/01 07:01:29;;;;;;;;;;;12.70;99.90;;;12.85;71.62;98941.34;4996651;28;19928;-85
2022/01/01 07:03:55;;;;;;;;;;;12.70;99.90;;;12.85;71.17;98935.91;5009412;28;19936;-85
2022/01/01 07:06:21;;;;;;;;;;;12.80;99.90;;;12.95;70.86;98929.53;5008996;28;19931;-85
2022/01/01 07:08:47;;;;;;;;;;;12.70;99.90;;;12.86;70.99;98942.94;4991065;28;19928;-85
2022/01/01 07:11:13;;;;;;;;;;;12.70;99.90;;;12.91;70.95;98947.53;5011412;28;20380;-85
2022/01/01 07:13:39;;;;;;;;;;;12.70;99.90;;;12.91;70.63;98953.00;5009520;28;19965;-85
2022/01/01 07:16:05;;;;;;;;;;;12.70;99.90;;;12.96;70.73;98944.78;5013084;28;19966;-85
2022/01/01 07:18:31;;;;;;;;;;;12.80;99.90;;;12.99;70.54;98952.38;4997243;28;19932;-85
2022/01/01 07:20:57;;;;;;;;;;;12.80;99.90;;;13.01;70.61;98952.91;4997861;28;20015;-85
2022/01/01 07:23:23;;;;;;;;;;;12.80;99.90;;;13.04;70.26;98957.78;5031762;28;19920;-84
2022/01/01 07:25:49;;;;;;;;;;;12.90;99.90;;;13.06;70.38;98963.75;5013011;28;19920;-85
2022/01/01 07:28:16;;;;;;;;;;;12.90;99.90;;;13.04;70.01;98972.19;4997874;28;19990;-85
2022/01/01 07:30:45;;;;;;;;;;;12.90;99.90;;;13.07;70.47;98964.56;5016819;28;19932;-85
2022/01/01 07:33:12;;;;;;;;;;;12.90;99.90;;;13.09;70.00;98962.38;5028773;28;20305;-85
2022/01/01 07:35:39;;;;;;;;;;;12.90;99.90;;;13.06;69.90;98962.94;5011229;28;20431;-85
2022/01/01 07:38:05;;;;;;;;;;;12.90;99.90;;;13.00;70.14;98970.31;5028521;28;20011;-85
2022/01/01 07:40:32;;;;;;;;;;;12.90;99.90;;;13.04;70.31;98979.56;5012122;28;19932;-85
2022/01/01 07:42:58;;;;;;;;;;;12.90;99.90;;;13.12;69.91;98981.66;5013511;28;20289;-85
2022/01/01 07:45:24;;;;;;;;;;;12.90;99.90;;;13.13;69.86;98982.50;5029606;28;19947;-85
2022/01/01 07:47:49;;;;;;;;;;;12.90;99.90;;;13.10;69.83;98989.31;5029479;28;19921;-85
2022/01/01 07:50:15;;;;;;;;;;;13.00;99.90;;;13.07;69.90;98976.25;5010999;28;19974;-85
2022/01/01 07:52:42;;;;;;;;;;;12.90;99.90;;;13.02;70.32;98985.28;5010650;28;19994;-85
2022/01/01 07:55:08;;;;;;;;;;;12.90;99.90;;;13.06;70.05;98988.25;4996923;28;19920;-85
2022/01/01 07:57:34;;;;;;;;;;;12.90;99.90;;;13.08;70.23;98998.84;5012105;28;20014;-85
2022/01/01 08:00:00;;;;;;;;;;;12.90;99.90;;;13.11;70.16;99001.03;4996693;28;19931;-85
2022/01/01 08:02:26;;;;;;;;;;;12.90;99.90;;;13.10;70.32;99004.84;4997052;28;19921;-85
2022/01/01 08:04:52;;;;;;;;;;;12.90;99.90;;;13.09;70.16;99006.75;4996776;28;19979;-85
2022/01/01 08:07:18;;;;;;;;;;;12.90;99.90;;;13.08;70.08;99002.41;5012862;28;19925;-85
2022/01/01 08:09:43;;;;;;;;;;;12.90;99.90;;;13.07;70.44;99006.22;5027458;28;19921;-85
2022/01/01 08:12:10;;;;;;;;;;;12.90;99.90;;;13.07;70.20;99014.38;5010674;28;19932;-85
2022/01/01 08:14:35;;;;;;;;;;;12.90;99.90;;;13.13;70.20;99018.72;5011504;28;19963;-84
2022/01/01 08:17:05;;;;;;;;;;;12.90;99.90;;;13.14;69.87;99017.59;5028373;28;19947;-85
2022/01/01 08:19:31;;;;;;;;;;;13.00;99.90;;;13.13;70.06;99023.34;5014857;28;20446;-84
2022/01/01 08:21:57;;;;;;;;;;;13.00;99.90;;;13.12;70.16;99017.06;5027296;28;19936;-82
2022/01/01 08:24:23;;;;;;;;;;;13.00;99.90;;;13.16;70.03;99020.84;5009291;28;19921;-83
2022/01/01 08:26:50;;;;;;;;;;;13.00;99.90;;;13.19;70.30;99031.19;5008079;28;19936;-84
2022/01/01 08:29:15;;;;;;;;;;;13.00;99.90;;;13.16;70.06;99020.84;5025510;28;19929;-83
2022/01/01 08:31:42;;;;;;;;;;;13.00;99.90;;;13.15;70.00;99023.84;5025986;28;19932;-82
2022/01/01 08:34:08;;;;;;;;;;;13.00;99.90;;;13.14;70.12;99033.13;5025991;28;20371;-83
2022/01/01 08:36:33;;;;;;;;;;;13.00;99.90;;;13.16;70.12;99022.78;5026060;28;19931;-82
2022/01/01 08:38:59;;;;;;;;;;;13.00;99.90;;;13.15;70.26;99024.69;5022807;28;19925;-82
2022/01/01 08:41:25;;;;;;;;;;;13.00;99.90;;;13.21;70.09;99029.00;5021528;28;19974;-83
2022/01/01 08:43:52;;;;;;;;;;;13.00;99.90;;;13.32;69.97;99027.00;5010775;28;19924;-83
2022/01/01 08:46:18;;;;;;;;;;;13.20;99.90;;;13.37;69.43;99026.97;5014226;28;19924;-82
2022/01/01 08:48:44;;;;;;;;;;;13.20;99.90;;;13.45;69.63;99042.69;5011924;28;20383;-83
2022/01/01 08:51:21;;;;;;;;;;;13.30;99.90;;;13.48;69.24;99038.56;5008040;28;19925;-85
2022/01/01 08:53:47;;;;;;;;;;;13.40;99.90;;;13.49;68.97;99036.69;5009038;28;20376;-85
2022/01/01 08:56:13;;;;;;;;;;;13.30;99.90;;;13.41;69.00;99044.38;5024425;28;19925;-85
2022/01/01 08:58:39;;;;;;;;;;;13.30;99.90;;;13.46;68.97;99038.88;5013110;28;20335;-83
2022/01/01 09:01:05;;;;;;;;;;;13.30;99.90;;;13.59;68.82;99048.31;4992669;28;20062;-85
2022/01/01 09:03:34;;;;;;;;;;;13.50;99.90;;;13.70;68.65;99045.47;5026764;28;20404;-85
2022/01/01 09:06:01;;;;;;;;;;;13.50;99.90;;;13.79;68.39;99035.53;5009986;28;20334;-85
2022/01/01 09:08:29;;;;;;;;;;;13.60;99.90;;;13.77;68.58;99048.69;5011423;28;20428;-90
2022/01/01 09:10:55;;;;;;;;;;;13.70;99.90;;;13.80;68.53;99053.53;4993996;28;20018;-85
2022/01/01 09:13:21;;;;;;;;;;;13.70;99.90;;;13.75;68.60;99046.22;5021752;28;20665;-84
2022/01/01 09:15:48;;;;;;;;;;;13.70;99.90;;;13.75;68.51;99059.06;4991593;28;20020;-84
2022/01/01 09:18:14;;;;;;;;;;;13.70;99.90;;;13.76;67.95;99057.94;5009180;28;20378;-84
2022/01/01 09:20:40;;;;;;;;;;;13.70;99.90;;;13.68;68.28;99062.91;5008411;28;20503;-84
2022/01/01 09:23:06;;;;;;;;;;;13.60;99.90;;;13.64;68.09;99066.53;5005519;28;20002;-84
2022/01/01 09:25:32;;;;;;;;;;;13.50;99.90;;;13.62;68.64;99068.72;5002874;28;19925;-84
2022/01/01 09:27:58;;;;;;;;;;;13.60;99.90;;;13.64;68.86;99067.34;5010169;28;20439;-84
2022/01/01 09:30:24;;;;;;;;;;;13.60;99.90;;;13.63;68.58;99067.59;5010101;28;19920;-84
2022/01/01 09:32:53;;;;;;;;;;;13.70;99.90;;;13.60;68.44;99070.91;5012635;28;19987;-84
2022/01/01 09:35:19;;;;;;;;;;;13.70;99.90;;;13.58;68.56;99064.94;5010333;28;20390;-85
2022/01/01 09:37:45;;;;;;;;;;;13.50;99.90;;;13.56;68.72;99075.31;5010330;28;20023;-84
2022/01/01 09:40:11;;;;;;;;;;;13.50;99.90;;;13.55;68.33;99065.50;4990935;28;20265;-84
2022/01/01 09:42:39;;;;;;;;;;;13.50;99.90;;;13.61;68.43;99070.63;5005524;28;19955;-85
2022/01/01 09:45:06;;;;;;;;;;;13.50;99.90;;;13.62;67.94;99064.06;5007249;28;20038;-84
2022/01/01 09:47:32;;;;;;;;;;;13.50;99.90;;;13.59;68.25;99080.19;5009675;28;19920;-84
2022/01/01 09:49:58;;;;;;;;;;;13.50;99.90;;;13.59;67.85;99080.19;5012006;28;19924;-84
2022/01/01 09:52:24;;;;;;;;;;;13.50;99.90;;;13.57;67.96;99079.66;5010443;28;19944;-84
2022/01/01 09:54:50;;;;;;;;;;;13.40;99.90;;;13.64;67.96;99080.97;5004771;28;20372;-84
2022/01/01 09:57:16;;;;;;;;;;;13.50;99.90;;;13.63;68.10;99087.50;4995930;28;19925;-84
2022/01/01 09:59:42;;;;;;;;;;;13.50;99.90;;;13.65;67.81;99088.03;5025633;28;19964;-84
2022/01/01 10:02:08;;;;;;;;;;;13.50;99.90;;;13.62;68.02;99094.06;4990624;28;19928;-84
2022/01/01 10:04:51;;;;;;;;;;;13.50;99.90;;;13.62;68.16;99098.69;5003313;28;19925;-84
2022/01/01 10:07:26;;;;;;;;;;;13.50;99.90;;;13.58;68.20;99095.72;5010927;28;20217;-84
2022/01/01 10:09:52;;;;;;;;;;;13.50;99.90;;;13.64;68.00;99082.88;5031960;28;19929;-84
2022/01/01 10:12:18;;;;;;;;;;;13.50;99.90;;;13.64;68.03;99093.78;5013782;28;20247;-84
2022/01/01 10:14:47;;;;;;;;;;;13.50;99.90;;;13.65;68.12;99063.50;5008744;28;20015;-85
2022/01/01 10:17:14;;;;;;;;;;;13.60;99.90;;;13.63;67.80;99086.69;5014027;28;19924;-84
2022/01/01 10:19:40;;;;;;;;;;;13.60;99.90;;;13.63;68.13;99084.78;5028301;28;20042;-84
2022/01/01 10:22:07;;;;;;;;;;;13.50;99.90;;;13.69;67.80;99082.84;4994205;28;20423;-84
2022/01/01 10:27:42;;;;;;;;;;;13.50;99.90;;;13.67;67.90;99094.00;4962143;28;19922;-83
2022/01/01 10:30:28;;;;;;;;;;;13.50;99.90;;;13.65;68.04;99090.75;5012977;28;20024;-85
2022/01/01 10:33:08;;;;;;;;;;;13.50;99.90;;;13.64;68.20;99096.50;5031991;28;19939;-85
2022/01/01 10:35:44;;;;;;;;;;;13.50;99.90;;;13.80;67.88;99094.44;4998069;28;19924;-85
2022/01/01 10:38:18;;;;;;;;;;;13.60;99.90;;;13.77;68.31;99092.31;5028141;28;20269;-85
2022/01/01 10:40:44;;;;;;;;;;;13.60;99.90;;;13.80;68.35;99092.53;5013987;28;20436;-85
2022/01/01 10:43:10;;;;;;;;;;;13.60;99.90;;;13.93;67.91;99093.75;5031707;28;20402;-85
2022/01/01 10:45:47;;;;;;;;;;;13.80;99.90;;;13.89;68.13;99096.25;5036317;28;19928;-85
2022/01/01 10:48:21;;;;;;;;;;;13.80;99.90;;;13.83;68.70;99091.13;5028116;28;20399;-85
2022/01/01 10:50:48;;;;;;;;;;;13.80;99.90;;;13.83;68.49;99089.22;5009121;28;20391;-86
2022/01/01 10:53:24;;;;;;;;;;;13.80;99.90;;;13.92;68.16;99094.03;5008362;28;19929;-85
2022/01/01 10:55:53;;;;;;;;;;;13.80;99.90;;;13.87;68.20;99089.47;5015975;28;19978;-86
2022/01/01 10:58:23;;;;;;;;;;;13.80;99.90;;;13.98;67.78;99082.78;5032255;28;20388;-85
2022/01/01 11:00:50;;;;;;;;;;;13.80;99.90;;;14.07;67.64;99096.63;5017174;28;19924;-86
2022/01/01 11:03:17;;;;;;;;;;;14.00;99.90;;;14.18;66.91;99091.88;4997206;28;19928;-85
2022/01/01 11:05:44;;;;;;;;;;;14.00;99.90;;;14.33;66.92;99094.41;5028883;28;20011;-85
2022/01/01 11:08:10;;;;;;;;;;;14.20;99.90;;;14.46;66.42;99084.72;5027766;28;19936;-86
2022/01/01 11:10:38;;;;;;;;;;;14.40;99.90;;;14.46;65.91;99088.25;4985372;28;20409;-86
2022/01/01 11:13:05;;;;;;;;;;;14.50;99.90;;;14.34;65.98;99085.94;5018869;28;19921;-85
2022/01/01 11:15:31;;;;;;;;;;;14.40;99.90;;;14.26;66.21;99089.31;5016671;28;19925;-85
2022/01/01 11:17:57;;;;;;;;;;;14.30;99.90;;;14.29;66.52;99087.91;5001564;28;20312;-85